Time,TemperatureF,DewpointF,PressureIn,WindDirection,WindDirectionDegrees,WindSpeedMPH,WindSpeedGustMPH,Humidity,HourlyPrecipIn,Conditions,Clouds,dailyrainin,SoftwareType,DateUTC
2013-10-02 00:14:00,64.0,61.0,29.83,South,182,4.0,-999.0,89,-99.99,,,-99.99,,2013-10-02 04:14:00,
2013-10-02 00:24:00,63.0,60.0,29.83,SSW,206,3.0,-999.0,90,-99.99,,,-99.99,,2013-10-02 04:24:00,
2013-10-02 00:54:00,63.0,60.0,29.83,SW,221,3.0,-999.0,91,-99.99,,,-99.99,,2013-10-02 04:54:00,
2013-10-02 01:23:00,63.0,61.0,29.83,South,172,2.0,-999.0,92,-99.99,,,-99.99,,2013-10-02 05:23:00,
2013-10-02 01:53:00,62.0,60.0,29.83,South,179,2.0,-999.0,93,-99.99,,,-99.99,,2013-10-02 05:53:00,
2013-10-02 02:12:00,61.0,59.0,29.84,SSW,196,1.0,-999.0,93,-99.99,,,-99.99,,2013-10-02 06:12:00,
2013-10-02 02:22:00,61.0,59.0,29.85,SSW,200,1.0,-999.0,94,-99.99,,,-99.99,,2013-10-02 06:22:00,
2013-10-02 02:52:00,61.0,60.0,29.86,SSW,201,4.0,-999.0,95,-99.99,,,-99.99,,2013-10-02 06:52:00,
2013-10-02 03:12:00,61.0,59.0,29.86,SSW,211,4.0,-999.0,94,-99.99,,,-99.99,,2013-10-02 07:12:00,
2013-10-02 03:22:00,61.0,59.0,29.86,SSW,205,3.0,-999.0,94,-99.99,,,-99.99,,2013-10-02 07:22:00,
2013-10-02 03:52:00,61.0,60.0,29.87,WSW,243,3.0,-999.0,95,-99.99,,,-99.99,,2013-10-02 07:52:00,
2013-10-02 04:11:00,61.0,59.0,29.87,West,259,3.0,-999.0,94,-99.99,,,-99.99,,2013-10-02 08:11:00,
2013-10-02 04:22:00,60.0,59.0,29.88,SW,232,2.0,-999.0,95,-99.99,,,-99.99,,2013-10-02 08:22:00,
2013-10-02 04:52:00,60.0,59.0,29.89,SSW,203,2.0,-999.0,95,-99.99,,,-99.99,,2013-10-02 08:52:00,
2013-10-02 05:11:00,60.0,59.0,29.89,SW,228,1.0,-999.0,95,-99.99,,,-99.99,,2013-10-02 09:11:00,
2013-10-02 05:21:00,59.0,58.0,29.90,SW,217,2.0,-999.0,95,-99.99,,,-99.99,,2013-10-02 09:21:00,
2013-10-02 05:54:00,59.0,58.0,29.91,WSW,255,1.0,-999.0,95,-99.99,,,-99.99,,2013-10-02 09:54:00,
2013-10-02 06:23:00,58.0,57.0,29.92,WSW,250,2.0,-999.0,95,-99.99,,,-99.99,,2013-10-02 10:23:00,
2013-10-02 06:52:00,57.0,55.0,29.93,WSW,253,3.0,-999.0,93,-99.99,,,-99.99,,2013-10-02 10:52:00,
2013-10-02 07:22:00,56.0,54.0,29.94,WSW,240,0.0,-999.0,92,-99.99,,,-99.99,,2013-10-02 11:22:00,
2013-10-02 07:52:00,54.0,52.0,29.96,WSW,240,0.0,-999.0,93,-99.99,,,-99.99,,2013-10-02 11:52:00,
2013-10-02 08:12:00,54.0,52.0,29.96,WSW,240,0.0,-999.0,93,-99.99,,,-99.99,,2013-10-02 12:12:00,
2013-10-02 08:22:00,53.0,51.0,29.97,WSW,240,0.0,-999.0,93,-99.99,,,-99.99,,2013-10-02 12:22:00,
2013-10-02 08:52:00,54.0,51.0,29.98,WNW,298,1.0,-999.0,91,-99.99,,,-99.99,,2013-10-02 12:52:00,
2013-10-02 09:11:00,55.0,52.0,29.99,WNW,298,1.0,-999.0,88,-99.99,,,-99.99,,2013-10-02 13:11:00,
2013-10-02 09:22:00,56.0,52.0,29.99,WNW,298,1.0,-999.0,86,-99.99,,,-99.99,,2013-10-02 13:22:00,
2013-10-02 09:52:00,58.0,52.0,30.00,WNW,302,5.0,-999.0,81,-99.99,,,-99.99,,2013-10-02 13:52:00,
2013-10-02 10:02:00,58.0,52.0,30.00,WNW,302,5.0,-999.0,81,-99.99,,,-99.99,,2013-10-02 14:02:00,
2013-10-02 10:11:00,58.0,52.0,30.00,WNW,302,5.0,-999.0,81,-99.99,,,-99.99,,2013-10-02 14:11:00,
2013-10-02 10:21:00,61.0,53.0,30.01,WNW,296,4.0,-999.0,75,-99.99,,,-99.99,,2013-10-02 14:21:00,
2013-10-02 10:42:00,62.0,52.0,30.02,WNW,292,5.0,-999.0,70,-99.99,,,-99.99,,2013-10-02 14:42:00,
2013-10-02 10:52:00,63.0,52.0,30.02,West,275,5.0,-999.0,67,-99.99,,,-99.99,,2013-10-02 14:52:00,
2013-10-02 11:11:00,64.0,51.0,30.02,West,265,4.0,-999.0,63,-99.99,,,-99.99,,2013-10-02 15:11:00,
2013-10-02 11:22:00,66.0,51.0,30.03,NW,313,5.0,-999.0,58,-99.99,,,-99.99,,2013-10-02 15:22:00,
2013-10-02 11:54:00,68.0,48.0,30.03,WNW,302,5.0,-999.0,48,-99.99,,,-99.99,,2013-10-02 15:54:00,
2013-10-02 12:12:00,69.0,43.0,30.03,North,360,6.0,-999.0,39,-99.99,,,-99.99,,2013-10-02 16:12:00,
2013-10-02 12:23:00,69.0,42.0,30.03,NW,316,6.0,-999.0,37,-99.99,,,-99.99,,2013-10-02 16:23:00,
2013-10-02 12:52:00,71.0,42.0,30.02,West,274,3.0,-999.0,35,-99.99,,,-99.99,,2013-10-02 16:52:00,
2013-10-02 13:12:00,71.0,40.0,30.02,WNW,286,4.0,-999.0,32,-99.99,,,-99.99,,2013-10-02 17:12:00,
2013-10-02 13:23:00,71.0,40.0,30.02,WNW,302,2.0,-999.0,33,-99.99,,,-99.99,,2013-10-02 17:23:00,
2013-10-02 13:42:00,72.0,41.0,30.02,NW,307,4.0,-999.0,33,-99.99,,,-99.99,,2013-10-02 17:42:00,
2013-10-02 13:52:00,72.0,40.0,30.02,SSE,164,5.0,-999.0,31,-99.99,,,-99.99,,2013-10-02 17:52:00,
2013-10-02 14:12:00,72.0,40.0,30.01,West,271,3.0,-999.0,31,-99.99,,,-99.99,,2013-10-02 18:12:00,
2013-10-02 14:22:00,73.0,41.0,30.01,South,188,4.0,-999.0,31,-99.99,,,-99.99,,2013-10-02 18:22:00,
2013-10-02 14:52:00,74.0,40.0,30.00,SSW,200,4.0,-999.0,29,-99.99,,,-99.99,,2013-10-02 18:52:00,
2013-10-02 15:12:00,74.0,38.0,30.00,NNW,329,6.0,-999.0,27,-99.99,,,-99.99,,2013-10-02 19:12:00,
2013-10-02 15:22:00,74.0,39.0,29.99,SW,230,3.0,-999.0,28,-99.99,,,-99.99,,2013-10-02 19:22:00,
2013-10-02 15:52:00,75.0,40.0,29.99,NNW,336,4.0,-999.0,28,-99.99,,,-99.99,,2013-10-02 19:52:00,
2013-10-02 16:02:00,75.0,40.0,29.99,NNW,336,4.0,-999.0,28,-99.99,,,-99.99,,2013-10-02 20:02:00,
2013-10-02 16:11:00,75.0,40.0,29.99,NNW,336,4.0,-999.0,28,-99.99,,,-99.99,,2013-10-02 20:11:00,
2013-10-02 16:22:00,75.0,41.0,29.99,West,271,4.0,-999.0,29,-99.99,,,-99.99,,2013-10-02 20:22:00,
2013-10-02 16:52:00,75.0,39.0,29.98,WSW,242,5.0,-999.0,27,-99.99,,,-99.99,,2013-10-02 20:52:00,
2013-10-02 17:11:00,75.0,39.0,29.98,WSW,245,4.0,-999.0,27,-99.99,,,-99.99,,2013-10-02 21:11:00,
2013-10-02 17:22:00,75.0,39.0,29.98,WNW,302,5.0,-999.0,27,-99.99,,,-99.99,,2013-10-02 21:22:00,
2013-10-02 17:44:00,75.0,40.0,29.98,West,273,5.0,-999.0,28,-99.99,,,-99.99,,2013-10-02 21:44:00,
2013-10-02 17:55:00,74.0,38.0,29.98,West,277,6.0,-999.0,27,-99.99,,,-99.99,,2013-10-02 21:55:00,
2013-10-02 18:13:00,74.0,39.0,29.98,West,270,5.0,-999.0,28,-99.99,,,-99.99,,2013-10-02 22:13:00,
2013-10-02 18:24:00,74.0,39.0,29.98,West,281,4.0,-999.0,28,-99.99,,,-99.99,,2013-10-02 22:24:00,
2013-10-02 18:44:00,74.0,40.0,29.98,SW,234,2.0,-999.0,29,-99.99,,,-99.99,,2013-10-02 22:44:00,
2013-10-02 18:54:00,73.0,40.0,29.98,West,269,2.0,-999.0,30,-99.99,,,-99.99,,2013-10-02 22:54:00,
2013-10-02 19:22:00,72.0,41.0,29.98,WSW,254,0.0,-999.0,33,-99.99,,,-99.99,,2013-10-02 23:22:00,
2013-10-02 19:52:00,68.0,45.0,29.98,WSW,254,0.0,-999.0,43,-99.99,,,-99.99,,2013-10-02 23:52:00,
2013-10-02 20:12:00,65.0,44.0,29.99,WSW,254,0.0,-999.0,46,-99.99,,,-99.99,,2013-10-03 00:12:00,
2013-10-02 20:22:00,63.0,45.0,29.99,WSW,254,0.0,-999.0,51,-99.99,,,-99.99,,2013-10-03 00:22:00,
2013-10-02 20:42:00,61.0,44.0,29.99,WSW,254,0.0,-999.0,54,-99.99,,,-99.99,,2013-10-03 00:42:00,
2013-10-02 20:52:00,60.0,45.0,29.99,WSW,254,0.0,-999.0,57,-99.99,,,-99.99,,2013-10-03 00:52:00,
2013-10-02 21:11:00,59.0,45.0,29.99,WSW,254,0.0,-999.0,60,-99.99,,,-99.99,,2013-10-03 01:11:00,
2013-10-02 21:23:00,58.0,45.0,30.00,WSW,254,0.0,-999.0,62,-99.99,,,-99.99,,2013-10-03 01:23:00,
2013-10-02 21:42:00,57.0,45.0,30.01,WSW,254,0.0,-999.0,65,-99.99,,,-99.99,,2013-10-03 01:42:00,
2013-10-02 21:52:00,56.0,44.0,30.00,WSW,254,0.0,-999.0,65,-99.99,,,-99.99,,2013-10-03 01:52:00,
2013-10-02 22:11:00,55.0,43.0,30.00,WSW,254,0.0,-999.0,65,-99.99,,,-99.99,,2013-10-03 02:11:00,
2013-10-02 22:22:00,55.0,45.0,30.00,WSW,254,0.0,-999.0,68,-99.99,,,-99.99,,2013-10-03 02:22:00,
2013-10-02 23:11:00,52.0,45.0,30.00,WSW,254,0.0,-999.0,76,-99.99,,,-99.99,,2013-10-03 03:11:00,
2013-10-02 23:22:00,51.0,44.0,30.01,WSW,254,0.0,-999.0,78,-99.99,,,-99.99,,2013-10-03 03:22:00,
2013-10-02 23:44:00,51.0,44.0,30.01,WSW,254,0.0,-999.0,78,-99.99,,,-99.99,,2013-10-03 03:44:00,
2013-10-02 23:54:00,51.0,44.0,30.01,WSW,254,0.0,-999.0,78,-99.99,,,-99.99,,2013-10-03 03:54:00,